sensor_id;sensor_type;location;lat;lon;timestamp;P1;durP1;ratioP1;P2;durP2;ratioP2
24859;SDS011;12936;52.006;4.350;2022-12-20T00:02:24;9.17;;;3.77;;
24859;SDS011;12936;52.006;4.350;2022-12-20T00:04:54;5.87;;;3.90;;
24859;SDS011;12936;52.006;4.350;2022-12-20T00:07:23;5.87;;;3.90;;
24859;SDS011;12936;52.006;4.350;2022-12-20T00:09:54;10.77;;;4.10;;
24859;SDS011;12936;52.006;4.350;2022-12-20T00:12:25;6.57;;;3.90;;
24859;SDS011;12936;52.006;4.350;2022-12-20T00:14:55;6.13;;;3.20;;
24859;SDS011;12936;52.006;4.350;2022-12-20T00:17:25;8.97;;;3.23;;
24859;SDS011;12936;52.006;4.350;2022-12-20T00:20:14;5.27;;;3.57;;
24859;SDS011;12936;52.006;4.350;2022-12-20T00:23:05;6.43;;;3.43;;
24859;SDS011;12936;52.006;4.350;2022-12-20T00:25:35;7.97;;;3.60;;
24859;SDS011;12936;52.006;4.350;2022-12-20T00:28:07;8.17;;;3.57;;
24859;SDS011;12936;52.006;4.350;2022-12-20T00:30:37;6.30;;;3.30;;
24859;SDS011;12936;52.006;4.350;2022-12-20T00:33:06;6.67;;;3.40;;
24859;SDS011;12936;52.006;4.350;2022-12-20T00:35:40;5.90;;;2.97;;
24859;SDS011;12936;52.006;4.350;2022-12-20T00:38:14;7.80;;;3.40;;
24859;SDS011;12936;52.006;4.350;2022-12-20T00:40:45;5.07;;;3.87;;
24859;SDS011;12936;52.006;4.350;2022-12-20T00:43:15;6.20;;;3.67;;
24859;SDS011;12936;52.006;4.350;2022-12-20T00:45:49;6.07;;;3.30;;
24859;SDS011;12936;52.006;4.350;2022-12-20T00:48:18;5.90;;;3.83;;
24859;SDS011;12936;52.006;4.350;2022-12-20T00:51:17;7.20;;;3.80;;
24859;SDS011;12936;52.006;4.350;2022-12-20T00:53:48;7.33;;;3.63;;
24859;SDS011;12936;52.006;4.350;2022-12-20T00:56:41;5.87;;;3.73;;
24859;SDS011;12936;52.006;4.350;2022-12-20T00:59:15;6.43;;;3.90;;
24859;SDS011;12936;52.006;4.350;2022-12-20T01:01:45;6.13;;;3.87;;
24859;SDS011;12936;52.006;4.350;2022-12-20T01:04:36;8.47;;;3.50;;
24859;SDS011;12936;52.006;4.350;2022-12-20T01:07:05;9.83;;;4.07;;
24859;SDS011;12936;52.006;4.350;2022-12-20T01:09:37;6.00;;;3.93;;
24859;SDS011;12936;52.006;4.350;2022-12-20T01:12:06;6.10;;;3.73;;
24859;SDS011;12936;52.006;4.350;2022-12-20T01:15:01;6.70;;;3.60;;
24859;SDS011;12936;52.006;4.350;2022-12-20T01:17:36;10.17;;;4.37;;
24859;SDS011;12936;52.006;4.350;2022-12-20T01:20:09;5.70;;;3.10;;
24859;SDS011;12936;52.006;4.350;2022-12-20T01:22:38;6.00;;;3.57;;
24859;SDS011;12936;52.006;4.350;2022-12-20T01:25:13;5.17;;;3.30;;
24859;SDS011;12936;52.006;4.350;2022-12-20T01:27:46;6.43;;;3.40;;
24859;SDS011;12936;52.006;4.350;2022-12-20T01:30:29;5.93;;;3.53;;
24859;SDS011;12936;52.006;4.350;2022-12-20T01:32:58;4.90;;;3.10;;
24859;SDS011;12936;52.006;4.350;2022-12-20T01:35:32;5.80;;;3.60;;
24859;SDS011;12936;52.006;4.350;2022-12-20T01:38:23;6.67;;;3.47;;
24859;SDS011;12936;52.006;4.350;2022-12-20T01:40:54;5.27;;;3.60;;
24859;SDS011;12936;52.006;4.350;2022-12-20T01:43:24;6.20;;;3.47;;
24859;SDS011;12936;52.006;4.350;2022-12-20T01:46:01;6.20;;;3.53;;
24859;SDS011;12936;52.006;4.350;2022-12-20T01:48:35;6.63;;;3.77;;
24859;SDS011;12936;52.006;4.350;2022-12-20T01:51:04;8.03;;;3.10;;
24859;SDS011;12936;52.006;4.350;2022-12-20T01:53:36;4.23;;;3.10;;
24859;SDS011;12936;52.006;4.350;2022-12-20T01:56:14;5.30;;;3.47;;
24859;SDS011;12936;52.006;4.350;2022-12-20T01:58:54;7.77;;;3.40;;
24859;SDS011;12936;52.006;4.350;2022-12-20T02:01:40;7.17;;;3.70;;
24859;SDS011;12936;52.006;4.350;2022-12-20T02:04:33;7.77;;;3.87;;
24859;SDS011;12936;52.006;4.350;2022-12-20T02:07:46;6.07;;;3.77;;
24859;SDS011;12936;52.006;4.350;2022-12-20T02:10:21;8.90;;;3.40;;
24859;SDS011;12936;52.006;4.350;2022-12-20T02:12:56;10.00;;;4.30;;
24859;SDS011;12936;52.006;4.350;2022-12-20T02:15:43;9.73;;;3.53;;
24859;SDS011;12936;52.006;4.350;2022-12-20T02:18:24;8.80;;;4.33;;
24859;SDS011;12936;52.006;4.350;2022-12-20T02:21:07;7.27;;;3.53;;
24859;SDS011;12936;52.006;4.350;2022-12-20T02:30:05;7.17;;;3.87;;
24859;SDS011;12936;52.006;4.350;2022-12-20T02:32:56;7.33;;;3.60;;
24859;SDS011;12936;52.006;4.350;2022-12-20T02:35:37;6.67;;;3.80;;
24859;SDS011;12936;52.006;4.350;2022-12-20T02:40:56;6.00;;;3.60;;
24859;SDS011;12936;52.006;4.350;2022-12-20T02:43:29;6.10;;;3.70;;
24859;SDS011;12936;52.006;4.350;2022-12-20T02:46:23;4.40;;;3.40;;
24859;SDS011;12936;52.006;4.350;2022-12-20T02:48:57;7.90;;;4.20;;
24859;SDS011;12936;52.006;4.350;2022-12-20T02:51:32;4.23;;;3.10;;
24859;SDS011;12936;52.006;4.350;2022-12-20T02:54:09;8.00;;;3.83;;
24859;SDS011;12936;52.006;4.350;2022-12-20T02:56:49;3.93;;;3.00;;
24859;SDS011;12936;52.006;4.350;2022-12-20T02:59:46;3.97;;;3.13;;
24859;SDS011;12936;52.006;4.350;2022-12-20T03:02:37;5.70;;;3.50;;
24859;SDS011;12936;52.006;4.350;2022-12-20T03:05:29;7.07;;;4.10;;
24859;SDS011;12936;52.006;4.350;2022-12-20T03:08:02;5.27;;;3.63;;
24859;SDS011;12936;52.006;4.350;2022-12-20T03:10:31;7.83;;;4.20;;
24859;SDS011;12936;52.006;4.350;2022-12-20T03:13:12;7.43;;;3.93;;
24859;SDS011;12936;52.006;4.350;2022-12-20T03:16:02;5.60;;;4.00;;
24859;SDS011;12936;52.006;4.350;2022-12-20T03:18:36;6.17;;;3.60;;
24859;SDS011;12936;52.006;4.350;2022-12-20T03:21:07;6.70;;;3.83;;
24859;SDS011;12936;52.006;4.350;2022-12-20T03:23:57;5.60;;;3.50;;
24859;SDS011;12936;52.006;4.350;2022-12-20T03:26:28;5.57;;;3.23;;
24859;SDS011;12936;52.006;4.350;2022-12-20T03:29:00;9.17;;;3.30;;
24859;SDS011;12936;52.006;4.350;2022-12-20T03:31:54;7.20;;;4.23;;
24859;SDS011;12936;52.006;4.350;2022-12-20T03:34:34;7.87;;;3.37;;
24859;SDS011;12936;52.006;4.350;2022-12-20T03:37:06;5.40;;;3.70;;
24859;SDS011;12936;52.006;4.350;2022-12-20T03:39:57;6.07;;;3.40;;
24859;SDS011;12936;52.006;4.350;2022-12-20T03:42:50;6.17;;;3.13;;
24859;SDS011;12936;52.006;4.350;2022-12-20T03:45:19;4.57;;;3.30;;
24859;SDS011;12936;52.006;4.350;2022-12-20T03:48:09;5.83;;;2.93;;
24859;SDS011;12936;52.006;4.350;2022-12-20T03:50:39;5.60;;;3.30;;
24859;SDS011;12936;52.006;4.350;2022-12-20T03:53:12;3.80;;;2.90;;
24859;SDS011;12936;52.006;4.350;2022-12-20T03:56:03;7.03;;;3.67;;
24859;SDS011;12936;52.006;4.350;2022-12-20T03:58:32;6.00;;;3.37;;
24859;SDS011;12936;52.006;4.350;2022-12-20T04:01:15;7.20;;;4.23;;
24859;SDS011;12936;52.006;4.350;2022-12-20T04:03:54;7.17;;;3.83;;
24859;SDS011;12936;52.006;4.350;2022-12-20T04:06:30;9.70;;;4.50;;
24859;SDS011;12936;52.006;4.350;2022-12-20T04:09:12;7.93;;;3.63;;
24859;SDS011;12936;52.006;4.350;2022-12-20T04:11:46;7.77;;;3.53;;
24859;SDS011;12936;52.006;4.350;2022-12-20T04:14:39;5.40;;;4.17;;
24859;SDS011;12936;52.006;4.350;2022-12-20T04:17:28;6.10;;;3.47;;
24859;SDS011;12936;52.006;4.350;2022-12-20T04:20:24;6.83;;;3.37;;
24859;SDS011;12936;52.006;4.350;2022-12-20T04:22:55;6.60;;;3.63;;
24859;SDS011;12936;52.006;4.350;2022-12-20T04:25:48;7.23;;;4.07;;
24859;SDS011;12936;52.006;4.350;2022-12-20T04:28:18;6.50;;;4.40;;
24859;SDS011;12936;52.006;4.350;2022-12-20T04:30:58;9.07;;;4.07;;
24859;SDS011;12936;52.006;4.350;2022-12-20T04:33:28;8.97;;;4.57;;
24859;SDS011;12936;52.006;4.350;2022-12-20T04:35:58;10.33;;;4.03;;
24859;SDS011;12936;52.006;4.350;2022-12-20T04:38:32;7.73;;;4.20;;
24859;SDS011;12936;52.006;4.350;2022-12-20T04:41:05;8.37;;;4.07;;
24859;SDS011;12936;52.006;4.350;2022-12-20T04:43:37;8.03;;;4.23;;
24859;SDS011;12936;52.006;4.350;2022-12-20T04:46:05;5.83;;;3.70;;
24859;SDS011;12936;52.006;4.350;2022-12-20T04:48:44;7.97;;;4.30;;
24859;SDS011;12936;52.006;4.350;2022-12-20T04:51:24;10.53;;;4.20;;
24859;SDS011;12936;52.006;4.350;2022-12-20T04:54:00;7.27;;;3.93;;
24859;SDS011;12936;52.006;4.350;2022-12-20T04:56:30;6.63;;;4.33;;
24859;SDS011;12936;52.006;4.350;2022-12-20T04:59:05;6.90;;;4.27;;
24859;SDS011;12936;52.006;4.350;2022-12-20T05:02:18;5.77;;;3.57;;
24859;SDS011;12936;52.006;4.350;2022-12-20T05:05:10;7.07;;;4.27;;
24859;SDS011;12936;52.006;4.350;2022-12-20T05:07:39;7.33;;;3.60;;
24859;SDS011;12936;52.006;4.350;2022-12-20T05:10:15;8.17;;;4.50;;
24859;SDS011;12936;52.006;4.350;2022-12-20T05:13:05;6.57;;;3.80;;
24859;SDS011;12936;52.006;4.350;2022-12-20T05:15:35;4.97;;;3.10;;
24859;SDS011;12936;52.006;4.350;2022-12-20T05:18:10;9.80;;;4.00;;
24859;SDS011;12936;52.006;4.350;2022-12-20T05:20:41;4.40;;;3.30;;
24859;SDS011;12936;52.006;4.350;2022-12-20T05:23:14;9.57;;;3.67;;
24859;SDS011;12936;52.006;4.350;2022-12-20T05:26:02;6.60;;;3.50;;
24859;SDS011;12936;52.006;4.350;2022-12-20T05:29:06;8.87;;;4.13;;
24859;SDS011;12936;52.006;4.350;2022-12-20T05:31:42;7.93;;;4.00;;
24859;SDS011;12936;52.006;4.350;2022-12-20T05:34:13;6.67;;;3.47;;
24859;SDS011;12936;52.006;4.350;2022-12-20T05:36:42;8.47;;;3.40;;
24859;SDS011;12936;52.006;4.350;2022-12-20T05:39:15;4.63;;;3.60;;
24859;SDS011;12936;52.006;4.350;2022-12-20T05:41:49;6.00;;;3.30;;
24859;SDS011;12936;52.006;4.350;2022-12-20T05:44:19;5.73;;;3.87;;
24859;SDS011;12936;52.006;4.350;2022-12-20T05:46:58;4.83;;;3.53;;
24859;SDS011;12936;52.006;4.350;2022-12-20T05:49:50;6.63;;;3.77;;
24859;SDS011;12936;52.006;4.350;2022-12-20T05:52:20;5.67;;;3.10;;
24859;SDS011;12936;52.006;4.350;2022-12-20T05:54:50;6.80;;;3.60;;
24859;SDS011;12936;52.006;4.350;2022-12-20T05:57:21;5.13;;;3.03;;
24859;SDS011;12936;52.006;4.350;2022-12-20T06:00:12;8.80;;;3.47;;
24859;SDS011;12936;52.006;4.350;2022-12-20T06:02:42;5.63;;;2.97;;
24859;SDS011;12936;52.006;4.350;2022-12-20T06:05:19;5.70;;;2.67;;
24859;SDS011;12936;52.006;4.350;2022-12-20T06:07:48;5.77;;;2.97;;
24859;SDS011;12936;52.006;4.350;2022-12-20T06:10:21;9.27;;;3.00;;
24859;SDS011;12936;52.006;4.350;2022-12-20T06:12:53;7.87;;;2.90;;
24859;SDS011;12936;52.006;4.350;2022-12-20T06:15:30;5.07;;;3.30;;
24859;SDS011;12936;52.006;4.350;2022-12-20T06:17:58;5.80;;;2.87;;
24859;SDS011;12936;52.006;4.350;2022-12-20T06:20:26;5.90;;;2.83;;
24859;SDS011;12936;52.006;4.350;2022-12-20T06:22:54;4.77;;;3.00;;
24859;SDS011;12936;52.006;4.350;2022-12-20T06:25:23;6.20;;;2.80;;
24859;SDS011;12936;52.006;4.350;2022-12-20T06:27:54;9.30;;;2.80;;
24859;SDS011;12936;52.006;4.350;2022-12-20T06:30:22;5.27;;;3.00;;
24859;SDS011;12936;52.006;4.350;2022-12-20T06:32:58;9.17;;;2.90;;
24859;SDS011;12936;52.006;4.350;2022-12-20T06:35:27;5.50;;;2.50;;
24859;SDS011;12936;52.006;4.350;2022-12-20T06:37:56;4.00;;;2.70;;
24859;SDS011;12936;52.006;4.350;2022-12-20T06:40:24;4.43;;;2.47;;
24859;SDS011;12936;52.006;4.350;2022-12-20T06:42:55;5.57;;;2.80;;
24859;SDS011;12936;52.006;4.350;2022-12-20T06:45:23;5.07;;;2.90;;
24859;SDS011;12936;52.006;4.350;2022-12-20T06:47:52;6.47;;;2.83;;
24859;SDS011;12936;52.006;4.350;2022-12-20T06:50:20;6.07;;;2.90;;
24859;SDS011;12936;52.006;4.350;2022-12-20T06:52:48;4.43;;;2.50;;
24859;SDS011;12936;52.006;4.350;2022-12-20T06:55:17;7.10;;;2.70;;
24859;SDS011;12936;52.006;4.350;2022-12-20T06:57:45;5.93;;;3.23;;
24859;SDS011;12936;52.006;4.350;2022-12-20T07:00:16;4.83;;;2.73;;
24859;SDS011;12936;52.006;4.350;2022-12-20T07:02:45;5.10;;;2.77;;
24859;SDS011;12936;52.006;4.350;2022-12-20T07:05:13;3.37;;;2.60;;
24859;SDS011;12936;52.006;4.350;2022-12-20T07:07:44;5.63;;;2.73;;
24859;SDS011;12936;52.006;4.350;2022-12-20T07:10:12;4.93;;;2.67;;
24859;SDS011;12936;52.006;4.350;2022-12-20T07:12:40;7.47;;;2.83;;
24859;SDS011;12936;52.006;4.350;2022-12-20T07:15:15;4.77;;;2.70;;
24859;SDS011;12936;52.006;4.350;2022-12-20T07:17:44;4.97;;;2.63;;
24859;SDS011;12936;52.006;4.350;2022-12-20T07:20:14;5.73;;;2.70;;
24859;SDS011;12936;52.006;4.350;2022-12-20T07:22:43;5.17;;;2.90;;
24859;SDS011;12936;52.006;4.350;2022-12-20T07:25:13;8.10;;;3.10;;
24859;SDS011;12936;52.006;4.350;2022-12-20T07:27:45;4.67;;;2.60;;
24859;SDS011;12936;52.006;4.350;2022-12-20T07:30:17;5.87;;;2.57;;
24859;SDS011;12936;52.006;4.350;2022-12-20T07:32:47;6.47;;;3.57;;
24859;SDS011;12936;52.006;4.350;2022-12-20T07:35:15;10.77;;;3.40;;
24859;SDS011;12936;52.006;4.350;2022-12-20T07:37:44;5.93;;;2.80;;
24859;SDS011;12936;52.006;4.350;2022-12-20T07:40:17;5.83;;;2.57;;
24859;SDS011;12936;52.006;4.350;2022-12-20T07:42:45;4.83;;;3.10;;
24859;SDS011;12936;52.006;4.350;2022-12-20T07:45:14;4.80;;;2.70;;
24859;SDS011;12936;52.006;4.350;2022-12-20T07:47:45;7.23;;;3.00;;
24859;SDS011;12936;52.006;4.350;2022-12-20T07:50:13;5.83;;;3.00;;
24859;SDS011;12936;52.006;4.350;2022-12-20T07:52:42;5.70;;;3.10;;
24859;SDS011;12936;52.006;4.350;2022-12-20T07:55:18;8.20;;;3.33;;
24859;SDS011;12936;52.006;4.350;2022-12-20T07:57:49;6.67;;;3.00;;
24859;SDS011;12936;52.006;4.350;2022-12-20T08:00:24;5.27;;;2.80;;
24859;SDS011;12936;52.006;4.350;2022-12-20T08:02:53;5.80;;;2.70;;
24859;SDS011;12936;52.006;4.350;2022-12-20T08:05:28;5.60;;;3.10;;
24859;SDS011;12936;52.006;4.350;2022-12-20T08:07:57;5.73;;;3.20;;
24859;SDS011;12936;52.006;4.350;2022-12-20T08:10:26;4.77;;;3.13;;
24859;SDS011;12936;52.006;4.350;2022-12-20T08:12:58;5.27;;;2.60;;
24859;SDS011;12936;52.006;4.350;2022-12-20T08:15:29;6.37;;;3.03;;
24859;SDS011;12936;52.006;4.350;2022-12-20T08:17:57;6.53;;;3.07;;
24859;SDS011;12936;52.006;4.350;2022-12-20T08:20:25;7.73;;;2.90;;
24859;SDS011;12936;52.006;4.350;2022-12-20T08:22:54;7.50;;;3.17;;
24859;SDS011;12936;52.006;4.350;2022-12-20T08:25:22;7.87;;;3.27;;
24859;SDS011;12936;52.006;4.350;2022-12-20T08:27:51;6.13;;;2.63;;
24859;SDS011;12936;52.006;4.350;2022-12-20T08:30:21;10.60;;;3.20;;
24859;SDS011;12936;52.006;4.350;2022-12-20T08:32:50;8.87;;;3.30;;
24859;SDS011;12936;52.006;4.350;2022-12-20T08:35:19;5.63;;;3.03;;
24859;SDS011;12936;52.006;4.350;2022-12-20T08:37:49;6.57;;;2.87;;
24859;SDS011;12936;52.006;4.350;2022-12-20T08:40:18;6.97;;;3.10;;
24859;SDS011;12936;52.006;4.350;2022-12-20T08:42:47;6.33;;;2.60;;
24859;SDS011;12936;52.006;4.350;2022-12-20T08:45:15;9.00;;;3.00;;
24859;SDS011;12936;52.006;4.350;2022-12-20T08:47:45;7.83;;;2.40;;
24859;SDS011;12936;52.006;4.350;2022-12-20T08:50:16;8.17;;;3.03;;
24859;SDS011;12936;52.006;4.350;2022-12-20T08:52:44;9.10;;;2.60;;
24859;SDS011;12936;52.006;4.350;2022-12-20T08:55:13;6.13;;;3.13;;
24859;SDS011;12936;52.006;4.350;2022-12-20T08:57:41;7.20;;;3.00;;
24859;SDS011;12936;52.006;4.350;2022-12-20T09:00:10;4.97;;;3.27;;
24859;SDS011;12936;52.006;4.350;2022-12-20T09:02:39;7.23;;;3.10;;
24859;SDS011;12936;52.006;4.350;2022-12-20T09:05:08;9.47;;;2.70;;
24859;SDS011;12936;52.006;4.350;2022-12-20T09:07:39;6.43;;;2.70;;
24859;SDS011;12936;52.006;4.350;2022-12-20T09:10:08;5.77;;;2.27;;
24859;SDS011;12936;52.006;4.350;2022-12-20T09:12:38;10.50;;;3.33;;
24859;SDS011;12936;52.006;4.350;2022-12-20T09:15:07;6.03;;;2.77;;
24859;SDS011;12936;52.006;4.350;2022-12-20T09:17:37;4.13;;;3.00;;
24859;SDS011;12936;52.006;4.350;2022-12-20T09:20:05;7.83;;;3.30;;
24859;SDS011;12936;52.006;4.350;2022-12-20T09:22:35;5.17;;;2.60;;
24859;SDS011;12936;52.006;4.350;2022-12-20T09:25:05;8.43;;;2.90;;
24859;SDS011;12936;52.006;4.350;2022-12-20T09:27:34;3.97;;;2.83;;
24859;SDS011;12936;52.006;4.350;2022-12-20T09:30:03;6.77;;;2.60;;
24859;SDS011;12936;52.006;4.350;2022-12-20T09:32:33;7.87;;;2.97;;
24859;SDS011;12936;52.006;4.350;2022-12-20T09:35:01;7.43;;;3.33;;
24859;SDS011;12936;52.006;4.350;2022-12-20T09:37:30;7.50;;;3.03;;
24859;SDS011;12936;52.006;4.350;2022-12-20T09:39:59;5.53;;;2.43;;
24859;SDS011;12936;52.006;4.350;2022-12-20T09:42:28;6.53;;;2.80;;
24859;SDS011;12936;52.006;4.350;2022-12-20T09:45:00;7.33;;;3.23;;
24859;SDS011;12936;52.006;4.350;2022-12-20T09:47:32;8.73;;;3.67;;
24859;SDS011;12936;52.006;4.350;2022-12-20T09:50:03;5.33;;;2.90;;
24859;SDS011;12936;52.006;4.350;2022-12-20T09:52:42;4.93;;;2.83;;
24859;SDS011;12936;52.006;4.350;2022-12-20T09:55:23;6.87;;;2.60;;
24859;SDS011;12936;52.006;4.350;2022-12-20T09:58:05;12.97;;;3.40;;
24859;SDS011;12936;52.006;4.350;2022-12-20T10:00:48;9.40;;;3.17;;
24859;SDS011;12936;52.006;4.350;2022-12-20T10:03:21;3.77;;;2.03;;
24859;SDS011;12936;52.006;4.350;2022-12-20T10:05:52;7.70;;;2.73;;
24859;SDS011;12936;52.006;4.350;2022-12-20T10:08:36;6.03;;;3.03;;
24859;SDS011;12936;52.006;4.350;2022-12-20T10:11:14;6.57;;;2.83;;
24859;SDS011;12936;52.006;4.350;2022-12-20T10:14:12;5.33;;;2.87;;
24859;SDS011;12936;52.006;4.350;2022-12-20T10:16:52;8.73;;;3.37;;
24859;SDS011;12936;52.006;4.350;2022-12-20T10:19:29;7.03;;;3.13;;
24859;SDS011;12936;52.006;4.350;2022-12-20T10:22:27;5.17;;;3.50;;
24859;SDS011;12936;52.006;4.350;2022-12-20T10:25:01;7.30;;;3.60;;
24859;SDS011;12936;52.006;4.350;2022-12-20T10:27:40;4.33;;;2.80;;
24859;SDS011;12936;52.006;4.350;2022-12-20T10:30:14;6.57;;;2.63;;
24859;SDS011;12936;52.006;4.350;2022-12-20T10:32:44;6.37;;;3.10;;
24859;SDS011;12936;52.006;4.350;2022-12-20T10:35:24;7.33;;;3.27;;
24859;SDS011;12936;52.006;4.350;2022-12-20T10:37:58;8.23;;;3.70;;
24859;SDS011;12936;52.006;4.350;2022-12-20T10:40:34;9.63;;;3.53;;
24859;SDS011;12936;52.006;4.350;2022-12-20T10:43:25;6.27;;;3.43;;
24859;SDS011;12936;52.006;4.350;2022-12-20T10:45:58;7.63;;;3.70;;
24859;SDS011;12936;52.006;4.350;2022-12-20T10:48:32;10.30;;;4.33;;
24859;SDS011;12936;52.006;4.350;2022-12-20T10:51:03;11.23;;;3.93;;
24859;SDS011;12936;52.006;4.350;2022-12-20T10:53:49;6.20;;;3.77;;
24859;SDS011;12936;52.006;4.350;2022-12-20T10:56:20;9.30;;;4.30;;
24859;SDS011;12936;52.006;4.350;2022-12-20T10:58:53;5.60;;;3.97;;
24859;SDS011;12936;52.006;4.350;2022-12-20T11:01:25;8.27;;;4.57;;
24859;SDS011;12936;52.006;4.350;2022-12-20T11:03:57;9.60;;;4.13;;
24859;SDS011;12936;52.006;4.350;2022-12-20T11:06:29;8.27;;;4.60;;
24859;SDS011;12936;52.006;4.350;2022-12-20T11:09:11;8.53;;;4.20;;
24859;SDS011;12936;52.006;4.350;2022-12-20T11:11:58;8.60;;;4.70;;
24859;SDS011;12936;52.006;4.350;2022-12-20T11:14:28;7.67;;;4.50;;
24859;SDS011;12936;52.006;4.350;2022-12-20T11:17:14;9.07;;;4.67;;
24859;SDS011;12936;52.006;4.350;2022-12-20T11:20:06;9.60;;;5.13;;
24859;SDS011;12936;52.006;4.350;2022-12-20T11:22:50;10.10;;;5.03;;
24859;SDS011;12936;52.006;4.350;2022-12-20T11:25:35;11.07;;;4.93;;
24859;SDS011;12936;52.006;4.350;2022-12-20T11:28:16;7.37;;;5.17;;
24859;SDS011;12936;52.006;4.350;2022-12-20T11:30:58;15.43;;;6.37;;
24859;SDS011;12936;52.006;4.350;2022-12-20T11:33:42;9.10;;;5.20;;
24859;SDS011;12936;52.006;4.350;2022-12-20T11:36:21;14.13;;;4.93;;
24859;SDS011;12936;52.006;4.350;2022-12-20T11:38:58;9.00;;;5.03;;
24859;SDS011;12936;52.006;4.350;2022-12-20T11:41:41;8.07;;;5.20;;
24859;SDS011;12936;52.006;4.350;2022-12-20T11:44:19;10.43;;;5.40;;
24859;SDS011;12936;52.006;4.350;2022-12-20T11:46:59;10.93;;;5.33;;
24859;SDS011;12936;52.006;4.350;2022-12-20T11:49:47;10.00;;;6.13;;
24859;SDS011;12936;52.006;4.350;2022-12-20T11:52:24;11.77;;;5.70;;
24859;SDS011;12936;52.006;4.350;2022-12-20T11:55:06;7.93;;;4.93;;
24859;SDS011;12936;52.006;4.350;2022-12-20T11:57:52;11.67;;;5.57;;
24859;SDS011;12936;52.006;4.350;2022-12-20T12:00:51;8.07;;;5.27;;
24859;SDS011;12936;52.006;4.350;2022-12-20T12:03:29;8.57;;;5.13;;
24859;SDS011;12936;52.006;4.350;2022-12-20T12:09:00;10.07;;;5.90;;
24859;SDS011;12936;52.006;4.350;2022-12-20T12:11:37;10.13;;;5.97;;
24859;SDS011;12936;52.006;4.350;2022-12-20T12:14:36;11.30;;;6.30;;
24859;SDS011;12936;52.006;4.350;2022-12-20T12:17:41;9.10;;;5.97;;
24859;SDS011;12936;52.006;4.350;2022-12-20T12:20:19;10.00;;;5.70;;
24859;SDS011;12936;52.006;4.350;2022-12-20T12:22:54;7.23;;;5.83;;
24859;SDS011;12936;52.006;4.350;2022-12-20T12:25:28;9.87;;;6.17;;
24859;SDS011;12936;52.006;4.350;2022-12-20T12:28:00;10.87;;;6.20;;
24859;SDS011;12936;52.006;4.350;2022-12-20T12:30:35;9.23;;;6.20;;
24859;SDS011;12936;52.006;4.350;2022-12-20T12:33:10;9.33;;;5.43;;
24859;SDS011;12936;52.006;4.350;2022-12-20T12:36:10;12.60;;;6.67;;
24859;SDS011;12936;52.006;4.350;2022-12-20T12:39:08;12.87;;;6.67;;
24859;SDS011;12936;52.006;4.350;2022-12-20T12:42:03;7.47;;;5.20;;
24859;SDS011;12936;52.006;4.350;2022-12-20T12:45:02;9.10;;;7.03;;
24859;SDS011;12936;52.006;4.350;2022-12-20T12:47:36;11.40;;;6.57;;
24859;SDS011;12936;52.006;4.350;2022-12-20T12:50:13;10.73;;;6.20;;
24859;SDS011;12936;52.006;4.350;2022-12-20T12:52:48;13.07;;;6.70;;
24859;SDS011;12936;52.006;4.350;2022-12-20T12:55:43;8.60;;;5.73;;
24859;SDS011;12936;52.006;4.350;2022-12-20T12:58:38;9.43;;;5.90;;
24859;SDS011;12936;52.006;4.350;2022-12-20T13:01:25;12.50;;;6.13;;
24859;SDS011;12936;52.006;4.350;2022-12-20T13:04:24;7.67;;;5.37;;
24859;SDS011;12936;52.006;4.350;2022-12-20T13:07:24;9.07;;;5.90;;
24859;SDS011;12936;52.006;4.350;2022-12-20T13:09:58;8.47;;;6.00;;
24859;SDS011;12936;52.006;4.350;2022-12-20T13:18:23;7.27;;;5.83;;
24859;SDS011;12936;52.006;4.350;2022-12-20T13:23:55;10.70;;;6.23;;
24859;SDS011;12936;52.006;4.350;2022-12-20T13:27:03;8.33;;;6.63;;
24859;SDS011;12936;52.006;4.350;2022-12-20T13:36:28;9.10;;;6.90;;
24859;SDS011;12936;52.006;4.350;2022-12-20T13:39:32;12.77;;;6.67;;
24859;SDS011;12936;52.006;4.350;2022-12-20T13:42:13;10.37;;;6.43;;
24859;SDS011;12936;52.006;4.350;2022-12-20T13:44:56;11.87;;;6.43;;
24859;SDS011;12936;52.006;4.350;2022-12-20T13:47:36;10.30;;;6.53;;
24859;SDS011;12936;52.006;4.350;2022-12-20T13:50:21;9.40;;;6.80;;
24859;SDS011;12936;52.006;4.350;2022-12-20T13:53:03;9.73;;;7.20;;
24859;SDS011;12936;52.006;4.350;2022-12-20T13:55:36;9.13;;;7.17;;
24859;SDS011;12936;52.006;4.350;2022-12-20T13:58:16;11.73;;;7.10;;
24859;SDS011;12936;52.006;4.350;2022-12-20T14:00:53;11.23;;;8.10;;
24859;SDS011;12936;52.006;4.350;2022-12-20T14:03:32;12.10;;;8.30;;
24859;SDS011;12936;52.006;4.350;2022-12-20T14:06:09;11.50;;;8.47;;
24859;SDS011;12936;52.006;4.350;2022-12-20T14:08:48;10.10;;;8.23;;
24859;SDS011;12936;52.006;4.350;2022-12-20T14:11:20;9.27;;;8.10;;
24859;SDS011;12936;52.006;4.350;2022-12-20T14:13:53;10.97;;;8.40;;
24859;SDS011;12936;52.006;4.350;2022-12-20T14:16:27;15.07;;;8.90;;
24859;SDS011;12936;52.006;4.350;2022-12-20T14:19:16;16.10;;;9.60;;
24859;SDS011;12936;52.006;4.350;2022-12-20T14:21:46;13.83;;;10.03;;
24859;SDS011;12936;52.006;4.350;2022-12-20T14:24:19;11.67;;;9.97;;
24859;SDS011;12936;52.006;4.350;2022-12-20T14:26:50;13.33;;;9.80;;
24859;SDS011;12936;52.006;4.350;2022-12-20T14:29:23;12.70;;;10.27;;
24859;SDS011;12936;52.006;4.350;2022-12-20T14:31:55;14.33;;;10.13;;
24859;SDS011;12936;52.006;4.350;2022-12-20T14:34:30;13.20;;;10.37;;
24859;SDS011;12936;52.006;4.350;2022-12-20T14:37:16;14.93;;;9.70;;
24859;SDS011;12936;52.006;4.350;2022-12-20T14:39:57;12.13;;;9.37;;
24859;SDS011;12936;52.006;4.350;2022-12-20T14:42:28;14.43;;;9.30;;
24859;SDS011;12936;52.006;4.350;2022-12-20T14:45:01;11.63;;;9.13;;
24859;SDS011;12936;52.006;4.350;2022-12-20T14:47:32;12.07;;;9.73;;
24859;SDS011;12936;52.006;4.350;2022-12-20T14:50:03;11.80;;;9.00;;
24859;SDS011;12936;52.006;4.350;2022-12-20T14:52:46;11.97;;;9.00;;
24859;SDS011;12936;52.006;4.350;2022-12-20T14:55:22;13.33;;;9.70;;
24859;SDS011;12936;52.006;4.350;2022-12-20T14:57:55;13.87;;;10.20;;
24859;SDS011;12936;52.006;4.350;2022-12-20T15:00:25;12.35;;;9.27;;
24859;SDS011;12936;52.006;4.350;2022-12-20T15:02:57;12.37;;;10.50;;
24859;SDS011;12936;52.006;4.350;2022-12-20T15:08:24;13.50;;;10.03;;
24859;SDS011;12936;52.006;4.350;2022-12-20T15:10:59;11.60;;;10.27;;
24859;SDS011;12936;52.006;4.350;2022-12-20T15:13:30;13.73;;;10.23;;
24859;SDS011;12936;52.006;4.350;2022-12-20T15:16:00;12.33;;;11.03;;
24859;SDS011;12936;52.006;4.350;2022-12-20T15:18:33;11.73;;;9.57;;
24859;SDS011;12936;52.006;4.350;2022-12-20T15:21:24;12.30;;;10.47;;
24859;SDS011;12936;52.006;4.350;2022-12-20T15:23:56;11.90;;;9.20;;
24859;SDS011;12936;52.006;4.350;2022-12-20T15:26:38;11.33;;;10.03;;
24859;SDS011;12936;52.006;4.350;2022-12-20T15:29:09;12.20;;;9.80;;
24859;SDS011;12936;52.006;4.350;2022-12-20T15:31:48;10.37;;;9.23;;
24859;SDS011;12936;52.006;4.350;2022-12-20T15:34:20;12.77;;;10.30;;
24859;SDS011;12936;52.006;4.350;2022-12-20T15:36:54;13.33;;;10.00;;
24859;SDS011;12936;52.006;4.350;2022-12-20T15:39:25;13.10;;;9.97;;
24859;SDS011;12936;52.006;4.350;2022-12-20T15:41:57;12.60;;;10.30;;
24859;SDS011;12936;52.006;4.350;2022-12-20T15:44:29;12.60;;;10.60;;
24859;SDS011;12936;52.006;4.350;2022-12-20T15:47:03;11.20;;;10.00;;
24859;SDS011;12936;52.006;4.350;2022-12-20T15:49:32;11.33;;;10.07;;
24859;SDS011;12936;52.006;4.350;2022-12-20T15:52:00;11.97;;;10.77;;
24859;SDS011;12936;52.006;4.350;2022-12-20T15:54:32;14.83;;;10.73;;
24859;SDS011;12936;52.006;4.350;2022-12-20T15:57:08;12.27;;;10.80;;
24859;SDS011;12936;52.006;4.350;2022-12-20T15:59:42;12.83;;;10.30;;
24859;SDS011;12936;52.006;4.350;2022-12-20T16:02:28;13.23;;;11.07;;
24859;SDS011;12936;52.006;4.350;2022-12-20T16:04:58;11.70;;;10.50;;
24859;SDS011;12936;52.006;4.350;2022-12-20T16:07:27;12.73;;;11.37;;
24859;SDS011;12936;52.006;4.350;2022-12-20T16:09:59;12.67;;;11.37;;